createdAt,value
2022-11-25T00:01:16.118Z,100.00
2022-11-25T00:03:43.949Z,100.00
2022-11-25T00:06:17.055Z,100.00
2022-11-25T00:08:45.639Z,100.00
2022-11-25T00:11:14.065Z,100.00
2022-11-25T00:13:41.819Z,100.00
2022-11-25T00:16:14.057Z,100.00
2022-11-25T00:18:44.891Z,100.00
2022-11-25T00:21:14.383Z,100.00
2022-11-25T00:23:41.144Z,100.00
2022-11-25T00:26:14.985Z,100.00
2022-11-25T00:28:44.188Z,100.00
2022-11-25T00:31:15.089Z,100.00
2022-11-25T00:33:41.749Z,100.00
2022-11-25T00:36:16.204Z,100.00
2022-11-25T00:38:42.855Z,100.00
2022-11-25T00:41:28.204Z,100.00
2022-11-25T00:46:44.788Z,100.00
2022-11-25T00:49:11.439Z,100.00
2022-11-25T00:54:09.584Z,100.00
2022-11-25T00:56:36.172Z,100.00
2022-11-25T00:59:03.447Z,100.00
2022-11-25T01:01:30.160Z,100.00
2022-11-25T01:03:56.855Z,100.00
2022-11-25T01:06:23.983Z,100.00
2022-11-25T01:08:50.911Z,100.00
2022-11-25T01:11:20.774Z,100.00
2022-11-25T01:13:47.990Z,100.00
2022-11-25T01:16:18.285Z,99.87
2022-11-25T01:18:45.755Z,99.64
2022-11-25T01:21:15.457Z,99.34
2022-11-25T01:23:42.941Z,99.55
2022-11-25T01:26:12.531Z,98.38
2022-11-25T01:28:39.734Z,97.52
2022-11-25T01:31:21.306Z,97.26
2022-11-25T01:33:52.235Z,97.65
2022-11-25T01:36:19.729Z,98.16
2022-11-25T01:38:52.183Z,98.65
2022-11-25T01:41:19.562Z,99.05
2022-11-25T01:44:10.996Z,99.33
2022-11-25T01:46:58.165Z,100.00
2022-11-25T01:52:19.630Z,98.93
2022-11-25T01:55:05.701Z,98.26
2022-11-25T01:57:41.085Z,98.56
2022-11-25T02:00:08.752Z,98.34
2022-11-25T02:02:36.167Z,98.06
2022-11-25T02:05:08.223Z,97.28
2022-11-25T02:07:41.323Z,96.72
2022-11-25T02:10:11.842Z,96.93
2022-11-25T02:12:41.384Z,97.83
2022-11-25T02:17:40.131Z,97.28
2022-11-25T02:20:11.562Z,96.22
2022-11-25T02:22:52.312Z,96.66
2022-11-25T02:25:45.793Z,95.92
2022-11-25T02:28:18.452Z,95.54
2022-11-25T02:30:46.242Z,95.84
2022-11-25T02:33:13.376Z,94.71
2022-11-25T02:35:42.471Z,94.90
2022-11-25T02:38:37.492Z,94.76
2022-11-25T02:41:13.618Z,94.46
2022-11-25T02:43:41.468Z,93.94
2022-11-25T02:46:18.786Z,93.79
2022-11-25T02:51:35.211Z,93.50
2022-11-25T02:54:02.049Z,93.84
2022-11-25T02:56:31.818Z,95.37
2022-11-25T03:01:32.152Z,94.62
2022-11-25T03:03:59.545Z,94.83
2022-11-25T03:06:26.508Z,93.84
2022-11-25T03:08:54.026Z,93.27
2022-11-25T03:11:20.846Z,93.14
2022-11-25T03:13:47.603Z,93.25
2022-11-25T03:16:14.304Z,92.32
2022-11-25T03:18:41.026Z,92.24
2022-11-25T03:21:07.796Z,91.56
2022-11-25T03:23:34.489Z,92.13
2022-11-25T03:26:05.821Z,94.46
2022-11-25T03:28:32.485Z,95.75
2022-11-25T03:30:59.136Z,95.46
2022-11-25T03:33:25.833Z,94.89
2022-11-25T03:38:26.809Z,94.29
2022-11-25T03:40:53.513Z,94.52
2022-11-25T03:43:20.840Z,94.46
2022-11-25T03:45:52.897Z,94.66
2022-11-25T03:48:19.601Z,94.88
2022-11-25T03:50:48.682Z,94.36
2022-11-25T03:53:15.348Z,94.46
2022-11-25T03:55:42.044Z,93.97
2022-11-25T04:00:40.275Z,93.29
2022-11-25T04:03:06.969Z,93.54
2022-11-25T04:05:33.585Z,93.70
2022-11-25T04:08:00.345Z,94.05
2022-11-25T04:10:26.994Z,96.48
2022-11-25T04:12:54.379Z,97.03
2022-11-25T04:15:21.260Z,97.83
2022-11-25T04:17:47.958Z,98.77
2022-11-25T04:20:15.701Z,100.00
2022-11-25T04:22:42.723Z,99.62
2022-11-25T04:25:10.060Z,99.06
2022-11-25T04:27:36.756Z,98.95
2022-11-25T04:30:04.272Z,98.17
2022-11-25T04:32:30.932Z,99.53
2022-11-25T04:34:57.599Z,99.14
2022-11-25T04:37:24.291Z,98.37
2022-11-25T04:39:50.989Z,98.29
2022-11-25T04:42:33.495Z,98.56
2022-11-25T04:45:22.496Z,98.95
2022-11-25T04:47:49.478Z,98.99
2022-11-25T04:50:19.151Z,98.29
2022-11-25T04:52:45.929Z,97.82
2022-11-25T04:55:12.709Z,97.61
2022-11-25T04:57:39.439Z,97.95
2022-11-25T05:00:07.037Z,99.07
2022-11-25T05:02:33.814Z,99.56
2022-11-25T05:05:00.546Z,99.60
2022-11-25T05:07:28.644Z,100.00
2022-11-25T05:09:56.242Z,100.00
2022-11-25T05:12:25.831Z,100.00
2022-11-25T05:14:52.594Z,100.00
2022-11-25T05:17:22.034Z,100.00
2022-11-25T05:19:49.632Z,100.00
2022-11-25T05:22:19.651Z,100.00
2022-11-25T05:24:46.341Z,99.23
2022-11-25T05:27:13.178Z,97.48
2022-11-25T05:29:40.007Z,97.05
2022-11-25T05:32:07.279Z,97.27
2022-11-25T05:34:35.216Z,97.51
2022-11-25T05:37:02.138Z,98.74
2022-11-25T05:39:28.960Z,99.44
2022-11-25T05:41:55.678Z,99.76
2022-11-25T05:46:59.824Z,98.65
2022-11-25T05:49:26.511Z,98.13
2022-11-25T05:51:53.185Z,97.51
2022-11-25T05:54:19.893Z,97.75
2022-11-25T05:56:46.532Z,97.26
2022-11-25T05:59:13.165Z,96.65
2022-11-25T06:01:39.865Z,95.53
2022-11-25T06:04:06.533Z,95.03
2022-11-25T06:06:33.276Z,95.15
2022-11-25T06:09:00.241Z,95.02
2022-11-25T06:11:27.306Z,95.46
2022-11-25T06:13:56.999Z,96.63
2022-11-25T06:16:24.205Z,96.41
2022-11-25T06:18:51.095Z,95.26
2022-11-25T06:21:18.165Z,94.74
2022-11-25T06:23:47.601Z,94.51
2022-11-25T06:26:15.798Z,94.44
2022-11-25T06:31:20.439Z,93.87
2022-11-25T06:33:48.710Z,93.04
2022-11-25T06:36:18.971Z,92.94
2022-11-25T06:41:21.415Z,93.63
2022-11-25T06:43:48.228Z,93.95
2022-11-25T06:46:22.760Z,94.85
2022-11-25T06:48:51.840Z,94.06
2022-11-25T06:51:18.549Z,94.17
2022-11-25T06:53:45.266Z,93.88
2022-11-25T06:56:17.768Z,94.79
2022-11-25T06:58:45.503Z,95.15
2022-11-25T07:01:13.712Z,95.00
2022-11-25T07:03:41.512Z,94.66
2022-11-25T07:06:09.149Z,94.48
2022-11-25T07:11:18.527Z,95.15
2022-11-25T07:13:46.324Z,95.50
2022-11-25T07:16:14.043Z,95.11
2022-11-25T07:18:41.749Z,95.16
2022-11-25T07:21:14.849Z,95.21
2022-11-25T07:23:43.022Z,95.21
2022-11-25T07:26:15.457Z,94.51
2022-11-25T07:28:42.817Z,94.91
2022-11-25T07:31:23.746Z,95.02
2022-11-25T07:33:53.410Z,96.37
2022-11-25T07:36:20.422Z,95.45
2022-11-25T07:38:47.132Z,96.23
2022-11-25T07:41:19.798Z,96.13
2022-11-25T07:43:52.690Z,97.11
2022-11-25T07:46:26.817Z,98.00
2022-11-25T07:48:56.005Z,97.97
2022-11-25T07:51:32.601Z,98.40
2022-11-25T07:54:01.560Z,98.44
2022-11-25T07:56:29.752Z,98.81
2022-11-25T07:58:57.848Z,98.10
2022-11-25T08:01:25.227Z,98.24
2022-11-25T08:03:53.547Z,98.11
2022-11-25T08:06:22.424Z,99.01
2022-11-25T08:08:49.486Z,99.41
2022-11-25T08:11:21.800Z,99.02
2022-11-25T08:13:48.870Z,98.54
2022-11-25T08:16:18.197Z,98.25
2022-11-25T08:18:45.470Z,97.24
2022-11-25T08:21:13.876Z,97.72
2022-11-25T08:23:43.483Z,98.06
2022-11-25T08:26:13.876Z,97.72
2022-11-25T08:28:41.645Z,97.79
2022-11-25T08:31:15.655Z,97.65
2022-11-25T08:33:43.492Z,97.15
2022-11-25T08:36:10.791Z,96.86
2022-11-25T08:38:37.705Z,96.39
2022-11-25T08:41:13.676Z,96.27
2022-11-25T08:43:40.820Z,95.41
2022-11-25T08:46:13.187Z,96.31
2022-11-25T08:48:40.310Z,96.72
2022-11-25T08:51:19.236Z,96.65
2022-11-25T08:53:47.313Z,96.15
2022-11-25T08:56:15.106Z,96.08
2022-11-25T08:58:41.766Z,95.43
2022-11-25T09:01:08.712Z,95.64
2022-11-25T09:03:38.860Z,95.04
2022-11-25T09:06:06.772Z,93.57
2022-11-25T09:08:33.855Z,93.57
2022-11-25T09:11:01.368Z,93.50
2022-11-25T09:13:28.020Z,93.29
2022-11-25T09:15:55.035Z,91.59
2022-11-25T09:18:26.245Z,92.49
2022-11-25T09:20:53.586Z,91.15
2022-11-25T09:23:20.945Z,90.48
2022-11-25T09:25:55.276Z,90.44
2022-11-25T09:28:22.733Z,89.47
2022-11-25T09:30:50.070Z,89.58
2022-11-25T09:33:17.713Z,89.99
2022-11-25T09:35:44.463Z,88.83
2022-11-25T09:38:11.150Z,87.91
2022-11-25T09:40:52.049Z,87.81
2022-11-25T09:43:44.393Z,86.74
2022-11-25T09:46:59.212Z,86.20
2022-11-25T09:49:53.330Z,85.63
2022-11-25T09:52:52.684Z,85.07
2022-11-25T09:55:24.779Z,85.90
2022-11-25T09:58:13.597Z,86.47
2022-11-25T10:00:43.751Z,86.89
2022-11-25T10:03:16.832Z,86.37
2022-11-25T10:05:52.808Z,86.37
2022-11-25T10:11:02.231Z,84.88
2022-11-25T10:13:55.129Z,85.32
2022-11-25T10:16:36.066Z,85.10
2022-11-25T10:19:17.747Z,85.26
2022-11-25T10:21:46.527Z,85.92
2022-11-25T10:24:15.473Z,84.48
2022-11-25T10:26:44.568Z,83.46
2022-11-25T10:29:13.824Z,82.71
2022-11-25T10:31:43.054Z,83.38
2022-11-25T10:34:21.150Z,83.82
2022-11-25T10:36:51.897Z,84.56
2022-11-25T10:39:29.211Z,85.87
2022-11-25T10:42:03.719Z,85.93
2022-11-25T10:44:32.922Z,87.33
2022-11-25T10:47:35.682Z,88.09
2022-11-25T10:50:08.107Z,88.31
2022-11-25T10:52:40.426Z,89.52
2022-11-25T10:55:16.603Z,90.21
2022-11-25T10:57:43.768Z,91.14
2022-11-25T11:00:32.944Z,90.76
2022-11-25T11:03:13.993Z,89.66
2022-11-25T11:05:50.985Z,91.09
2022-11-25T11:08:43.669Z,91.86
2022-11-25T11:11:18.816Z,89.55
2022-11-25T11:13:47.035Z,89.54
2022-11-25T11:16:28.229Z,90.47
2022-11-25T11:18:56.595Z,89.02
2022-11-25T11:21:23.186Z,89.11
2022-11-25T11:23:52.341Z,89.42
2022-11-25T11:26:27.872Z,88.67
2022-11-25T11:29:00.188Z,88.67
2022-11-25T11:31:34.593Z,90.05
2022-11-25T11:37:17.083Z,95.00
2022-11-25T11:40:14.192Z,95.59
2022-11-25T11:42:56.151Z,95.88
2022-11-25T11:45:25.429Z,96.53
2022-11-25T11:48:09.990Z,97.51
2022-11-25T11:50:48.508Z,96.95
2022-11-25T11:53:44.017Z,95.51
2022-11-25T11:56:36.192Z,95.56
2022-11-25T11:59:18.714Z,95.29
2022-11-25T12:02:17.757Z,95.25
2022-11-25T12:04:58.095Z,97.06
2022-11-25T12:07:33.655Z,98.01
2022-11-25T12:10:15.626Z,98.10
2022-11-25T12:12:49.297Z,98.71
2022-11-25T12:15:28.863Z,98.93
2022-11-25T12:18:02.673Z,99.08
2022-11-25T12:20:48.676Z,99.41
2022-11-25T12:23:31.401Z,99.94
2022-11-25T12:26:06.241Z,100.00
2022-11-25T12:28:48.083Z,100.00
2022-11-25T12:31:23.460Z,100.00
2022-11-25T12:34:03.265Z,100.00
2022-11-25T12:36:45.714Z,100.00
2022-11-25T12:39:24.682Z,100.00
2022-11-25T12:41:55.104Z,100.00
2022-11-25T12:44:43.018Z,100.00
2022-11-25T12:47:11.582Z,100.00
2022-11-25T12:49:48.507Z,100.00
2022-11-25T12:52:45.327Z,100.00
2022-11-25T12:55:19.116Z,100.00
2022-11-25T12:57:51.418Z,100.00
2022-11-25T13:00:40.376Z,100.00
2022-11-25T13:03:29.940Z,100.00
2022-11-25T13:06:16.413Z,100.00
2022-11-25T13:08:52.096Z,100.00
2022-11-25T13:11:43.746Z,100.00
2022-11-25T13:14:41.157Z,100.00
2022-11-25T13:17:12.758Z,100.00
2022-11-25T13:19:39.690Z,100.00
2022-11-25T13:22:30.050Z,100.00
2022-11-25T13:24:59.767Z,100.00
2022-11-25T13:27:33.130Z,100.00
2022-11-25T13:30:01.242Z,100.00
2022-11-25T13:32:31.493Z,100.00
2022-11-25T13:35:22.702Z,100.00
2022-11-25T13:37:50.327Z,100.00
2022-11-25T13:40:23.580Z,100.00
2022-11-25T13:42:52.184Z,100.00
2022-11-25T13:45:38.554Z,100.00
2022-11-25T13:48:13.616Z,100.00
2022-11-25T13:51:09.398Z,100.00
2022-11-25T13:53:35.583Z,100.00
2022-11-25T13:56:33.041Z,100.00
2022-11-25T13:59:11.798Z,100.00
2022-11-25T14:01:59.806Z,100.00
2022-11-25T14:04:48.171Z,100.00
2022-11-25T14:07:37.228Z,100.00
2022-11-25T14:10:15.922Z,100.00
2022-11-25T14:13:01.073Z,100.00
2022-11-25T14:15:49.260Z,100.00
2022-11-25T14:18:51.151Z,100.00
2022-11-25T14:21:44.453Z,100.00
2022-11-25T14:24:17.591Z,100.00
2022-11-25T14:26:50.707Z,100.00
2022-11-25T14:29:32.653Z,100.00
2022-11-25T14:32:10.850Z,100.00
2022-11-25T14:34:43.116Z,100.00
2022-11-25T14:37:18.601Z,100.00
2022-11-25T14:39:58.085Z,100.00
2022-11-25T14:42:32.493Z,100.00
2022-11-25T14:44:59.510Z,100.00
2022-11-25T14:47:28.377Z,100.00
2022-11-25T14:52:47.919Z,100.00
2022-11-25T14:55:26.793Z,100.00
2022-11-25T14:57:53.570Z,100.00
2022-11-25T15:00:20.949Z,100.00
2022-11-25T15:03:00.943Z,100.00
2022-11-25T15:08:07.897Z,100.00
2022-11-25T15:10:41.106Z,100.00
2022-11-25T15:13:33.503Z,100.00
2022-11-25T15:16:22.905Z,100.00
2022-11-25T15:18:53.535Z,100.00
2022-11-25T15:24:27.420Z,100.00
2022-11-25T15:26:57.281Z,100.00
2022-11-25T15:29:24.588Z,100.00
2022-11-25T15:31:53.536Z,100.00
2022-11-25T15:34:21.994Z,100.00
2022-11-25T15:36:54.048Z,100.00
2022-11-25T15:39:21.130Z,100.00
2022-11-25T15:41:49.610Z,100.00
2022-11-25T15:44:28.845Z,100.00
2022-11-25T15:47:01.022Z,100.00
2022-11-25T15:49:28.265Z,100.00
2022-11-25T15:52:06.079Z,100.00
2022-11-25T15:54:39.841Z,100.00
2022-11-25T15:57:22.121Z,100.00
2022-11-25T16:00:19.321Z,100.00
2022-11-25T16:02:45.962Z,100.00
2022-11-25T16:05:12.655Z,100.00
2022-11-25T16:07:40.011Z,100.00
2022-11-25T16:10:28.622Z,100.00
2022-11-25T16:13:22.160Z,100.00
2022-11-25T16:15:55.882Z,100.00
2022-11-25T16:18:51.756Z,100.00
2022-11-25T16:21:30.867Z,100.00
2022-11-25T16:24:20.025Z,100.00
2022-11-25T16:27:00.932Z,100.00
2022-11-25T16:29:30.957Z,100.00
2022-11-25T16:31:58.590Z,100.00
2022-11-25T16:34:26.887Z,100.00
2022-11-25T16:36:54.442Z,100.00
2022-11-25T16:39:21.255Z,100.00
2022-11-25T16:41:56.376Z,100.00
2022-11-25T16:44:25.467Z,100.00
2022-11-25T16:46:53.476Z,100.00
2022-11-25T16:49:21.712Z,100.00
2022-11-25T16:51:50.690Z,100.00
2022-11-25T16:54:21.909Z,100.00
2022-11-25T16:56:52.069Z,100.00
2022-11-25T17:02:02.074Z,100.00
2022-11-25T17:04:28.936Z,100.00
2022-11-25T17:07:30.614Z,100.00
2022-11-25T17:12:22.640Z,100.00
2022-11-25T17:14:49.610Z,100.00
2022-11-25T17:17:24.584Z,100.00
2022-11-25T17:19:52.640Z,100.00
2022-11-25T17:22:24.695Z,100.00
2022-11-25T17:24:51.631Z,100.00
2022-11-25T17:27:28.899Z,100.00
2022-11-25T17:29:57.480Z,100.00
2022-11-25T17:32:25.646Z,100.00
2022-11-25T17:34:52.441Z,100.00
2022-11-25T17:37:23.269Z,100.00
2022-11-25T17:39:53.748Z,100.00
2022-11-25T17:42:28.039Z,100.00
2022-11-25T17:47:26.704Z,100.00
2022-11-25T17:49:53.498Z,100.00
2022-11-25T17:52:20.189Z,99.17
2022-11-25T17:54:46.922Z,93.63
2022-11-25T17:57:21.132Z,97.08
2022-11-25T17:59:47.976Z,99.13
2022-11-25T18:02:20.060Z,100.00
2022-11-25T18:04:46.883Z,100.00
2022-11-25T18:07:13.793Z,100.00
2022-11-25T18:09:40.417Z,100.00
2022-11-25T18:12:13.034Z,100.00
2022-11-25T18:14:42.978Z,100.00
2022-11-25T18:17:16.844Z,100.00
2022-11-25T18:19:43.580Z,100.00
2022-11-25T18:22:18.768Z,100.00
2022-11-25T18:27:28.867Z,100.00
2022-11-25T18:29:56.562Z,100.00
2022-11-25T18:32:24.864Z,100.00
2022-11-25T18:34:52.339Z,100.00
2022-11-25T18:39:57.415Z,100.00
2022-11-25T18:42:26.985Z,100.00
2022-11-25T18:44:55.344Z,100.00
2022-11-25T18:47:22.174Z,100.00
2022-11-25T18:49:55.166Z,100.00
2022-11-25T18:52:23.630Z,100.00
2022-11-25T18:57:21.668Z,100.00
2022-11-25T19:02:20.476Z,100.00
2022-11-25T19:04:47.227Z,100.00
2022-11-25T19:07:13.952Z,100.00
2022-11-25T19:12:17.223Z,100.00
2022-11-25T19:14:44.129Z,100.00
2022-11-25T19:17:21.474Z,100.00
2022-11-25T19:19:48.148Z,100.00
2022-11-25T19:22:16.446Z,100.00
2022-11-25T19:24:43.328Z,100.00
2022-11-25T19:27:23.551Z,100.00
2022-11-25T19:29:52.100Z,100.00
2022-11-25T19:32:28.277Z,100.00
2022-11-25T19:35:05.946Z,100.00
2022-11-25T19:37:32.590Z,100.00
2022-11-25T19:39:59.325Z,100.00
2022-11-25T19:42:26.062Z,100.00
2022-11-25T19:44:55.666Z,100.00
2022-11-25T19:47:26.844Z,100.00
2022-11-25T19:49:58.298Z,100.00
2022-11-25T19:55:18.574Z,100.00
2022-11-25T19:57:45.704Z,100.00
2022-11-25T20:00:14.435Z,100.00
2022-11-25T20:02:42.156Z,100.00
2022-11-25T20:05:09.844Z,100.00
2022-11-25T20:07:37.020Z,100.00
2022-11-25T20:10:19.187Z,100.00
2022-11-25T20:12:46.332Z,100.00
2022-11-25T20:15:13.388Z,100.00
2022-11-25T20:17:44.150Z,100.00
2022-11-25T20:20:18.007Z,100.00
2022-11-25T20:22:55.782Z,100.00
2022-11-25T20:25:23.157Z,100.00
2022-11-25T20:27:49.787Z,100.00
2022-11-25T20:30:20.472Z,100.00
2022-11-25T20:35:19.291Z,100.00
2022-11-25T20:37:54.510Z,100.00
2022-11-25T20:40:25.778Z,100.00
2022-11-25T20:42:53.378Z,100.00
2022-11-25T20:45:23.522Z,100.00
2022-11-25T20:47:51.203Z,100.00
2022-11-25T20:50:19.902Z,100.00
2022-11-25T20:52:50.503Z,100.00
2022-11-25T20:55:19.306Z,100.00
2022-11-25T20:57:46.750Z,100.00
2022-11-25T21:00:19.064Z,100.00
2022-11-25T21:02:46.261Z,100.00
2022-11-25T21:05:12.990Z,100.00
2022-11-25T21:07:40.109Z,100.00
2022-11-25T21:10:26.033Z,100.00
2022-11-25T21:12:53.281Z,100.00
2022-11-25T21:15:23.122Z,100.00
2022-11-25T21:17:51.793Z,100.00
2022-11-25T21:20:19.216Z,100.00
2022-11-25T21:22:49.557Z,100.00
2022-11-25T21:25:18.898Z,100.00
2022-11-25T21:27:47.417Z,100.00
2022-11-25T21:30:23.218Z,100.00
2022-11-25T21:35:32.247Z,100.00
2022-11-25T21:38:01.966Z,100.00
2022-11-25T21:40:44.275Z,100.00
2022-11-25T21:43:21.710Z,100.00
2022-11-25T21:45:50.261Z,100.00
2022-11-25T21:48:23.141Z,100.00
2022-11-25T21:50:49.941Z,100.00
2022-11-25T21:53:18.493Z,100.00
2022-11-25T21:55:46.201Z,100.00
2022-11-25T21:58:22.698Z,100.00
2022-11-25T22:00:56.100Z,100.00
2022-11-25T22:05:58.270Z,100.00
2022-11-25T22:08:24.911Z,100.00
2022-11-25T22:10:54.197Z,100.00
2022-11-25T22:13:29.961Z,100.00
2022-11-25T22:15:59.100Z,100.00
2022-11-25T22:18:30.793Z,100.00
2022-11-25T22:20:57.998Z,100.00
2022-11-25T22:23:24.954Z,100.00
2022-11-25T22:25:52.304Z,100.00
2022-11-25T22:28:23.020Z,100.00
2022-11-25T22:31:07.931Z,100.00
2022-11-25T22:33:37.522Z,100.00
2022-11-25T22:36:05.121Z,100.00
2022-11-25T22:38:32.112Z,100.00
2022-11-25T22:41:01.826Z,100.00
2022-11-25T22:43:35.516Z,100.00
2022-11-25T22:46:03.431Z,100.00
2022-11-25T22:48:38.977Z,100.00
2022-11-25T22:51:06.394Z,100.00
2022-11-25T22:53:33.058Z,100.00
2022-11-25T22:56:00.211Z,100.00
2022-11-25T22:58:27.955Z,100.00
2022-11-25T23:00:56.732Z,100.00
2022-11-25T23:03:29.443Z,100.00
2022-11-25T23:05:57.202Z,100.00
2022-11-25T23:08:26.926Z,100.00
2022-11-25T23:10:54.975Z,100.00
2022-11-25T23:13:22.223Z,100.00
2022-11-25T23:15:53.419Z,100.00
2022-11-25T23:18:46.011Z,100.00
2022-11-25T23:21:23.527Z,100.00
2022-11-25T23:23:50.568Z,100.00
2022-11-25T23:26:17.738Z,100.00
2022-11-25T23:28:44.383Z,100.00
2022-11-25T23:31:13.945Z,100.00
2022-11-25T23:36:35.497Z,100.00
2022-11-25T23:39:03.984Z,100.00
2022-11-25T23:41:33.831Z,100.00
2022-11-25T23:44:17.057Z,100.00
2022-11-25T23:46:44.475Z,100.00
2022-11-25T23:49:27.776Z,100.00
2022-11-25T23:52:04.600Z,100.00
2022-11-25T23:54:40.681Z,98.14
2022-11-25T23:57:14.545Z,96.81
2022-11-25T23:59:41.602Z,99.61
